Pagrindinis puslapis
METAR-TAF:

METAR-TAF

Oro uostai :

Pond Inlet, Nunavutas, Kanada

platuma: 72-42N, ilguma: 077-58W, Aukštis: 59 m

Dabartinis oras

Ataskaita buvo paskelbta 1 valandą ir 3 minutes, ne 12:00 UTC
Vėjas 4 kt iš Pietų
Temperatūra -33°C
Drėgmė 74%
Slėgis 1006 hPa
Matomumas: 14.5 km
Giedras dangus

METAR: CYIO 191200Z AUTO 19004KT 9SM CLR M33/M36 A2971 RMK SLP075

Laikas: 08:03 (13:03 UTC)

Prognozė

Ataskaita buvo paskelbta 25 minutes, ne 12:38 UTC
Prognozė galioja nuo 19 metu 13 UTC su 20 metu 01 UTC
Vėjas 5 kt iš Pietų
Matomumas: 10 km
Mažai debesys ne aukštis 5000 ft
Laikinai
nuo 19 metu 13 UTC su 20 metu 01 UTC
Matomumas: 8.0 km
Su prošvaistėmis ne aukštis 5000 ft
ledo kristalai

TAF: CYIO 191238Z 1913/2001 19005KT P6SM FEW050 TEMPO 1913/2001 5SM IC BKN050 RMK FCST BASED ON AUTO OBS. NXT FCST BY 191900Z

Orai ataskaitas ir orų prognozės (METAR, TAF).

turimą stotys yra geltonos ir raudonos taškus žemėlapyje.

Perkelti pele per norėdami pamatyti stoties vardą.

Tada spustelėkite, norėdami matyti oro stebėjimo ir prognozės.

Norėdami pakeisti žemėlapį: spustelėkite ant žalios mygtukų su juodo kryžiaus žemyn,; žalią mygtuką su brūkšneliu, jei norite nutolinti; arba žalių rodyklių gretimoms žemėlapius.


METAR-TAF: